Time;durP1;ratioP1;P1;durP2;ratioP2;P2;SDS_P1;SDS_P2;PMS_P1;PMS_P2;Temp;Humidity;BMP_temperature;BMP_pressure;BME280_temperature;BME280_humidity;BME280_pressure;Samples;Min_cycle;Max_cycle;Signal;HPM_P1;HPM_P2
2022/08/11 00:00:08;;;;;;;7.57;5.10;;;13.20;99.90;12.50;101499;;;;579169;244;24039;-78
2022/08/11 00:02:41;;;;;;;8.17;4.87;;;13.10;99.90;12.50;101506;;;;579154;244;24015;-79
2022/08/11 00:05:09;;;;;;;5.10;4.47;;;13.10;99.90;12.50;101506;;;;579297;244;24035;-81
2022/08/11 00:07:52;;;;;;;6.17;5.23;;;13.10;99.90;12.50;101512;;;;577620;244;24037;-83
2022/08/11 00:10:28;;;;;;;7.93;5.57;;;13.10;99.90;12.50;101501;;;;582698;243;24032;-79
2022/08/11 00:12:56;;;;;;;5.10;4.30;;;13.10;99.90;12.50;101499;;;;578468;244;24050;-78
2022/08/11 00:15:27;;;;;;;10.47;4.83;;;13.10;99.90;12.50;101503;;;;578095;244;24020;-77
2022/08/11 00:17:57;;;;;;;6.00;4.70;;;13.10;99.90;12.50;101500;;;;580640;244;24076;-78
2022/08/11 00:20:28;;;;;;;5.90;4.83;;;13.10;99.90;12.40;101494;;;;578323;244;24011;-76
2022/08/11 00:22:56;;;;;;;8.93;5.27;;;13.10;99.90;12.40;101494;;;;579450;244;24069;-78
2022/08/11 00:25:24;;;;;;;7.63;5.50;;;13.10;99.90;12.40;101493;;;;576379;244;24049;-78
2022/08/11 00:27:56;;;;;;;7.67;5.40;;;13.00;99.90;12.40;101489;;;;580757;244;24014;-76
2022/08/11 00:30:22;;;;;;;7.07;5.27;;;13.00;99.90;12.40;101493;;;;579060;244;24048;-77
2022/08/11 00:32:53;;;;;;;7.47;5.40;;;13.00;99.90;12.40;101482;;;;573539;246;24084;-77
2022/08/11 00:35:21;;;;;;;6.77;5.17;;;13.00;99.90;12.40;101485;;;;581714;244;24054;-76
2022/08/11 00:37:49;;;;;;;7.90;5.77;;;13.00;99.90;12.40;101484;;;;575759;244;24025;-77
2022/08/11 00:40:22;;;;;;;7.03;5.30;;;13.00;99.90;12.40;101482;;;;562023;251;24107;-76
2022/08/11 00:43:22;;;;;;;6.77;5.33;;;13.00;99.90;12.40;101481;;;;582711;242;24052;-76
2022/08/11 00:46:09;;;;;;;6.97;5.50;;;13.00;99.90;12.30;101473;;;;579289;244;24129;-77
2022/08/11 00:48:39;;;;;;;7.73;5.40;;;13.00;99.90;12.30;101487;;;;579564;244;24102;-77
2022/08/11 00:51:16;;;;;;;7.20;4.57;;;12.90;99.90;12.30;101483;;;;581725;244;24056;-78
2022/08/11 00:53:53;;;;;;;6.80;5.30;;;12.90;99.90;12.30;101483;;;;579211;244;24065;-78
2022/08/11 00:57:00;;;;;;;7.17;5.87;;;12.90;99.90;12.30;101486;;;;579616;244;24022;-78
2022/08/11 00:59:40;;;;;;;10.10;5.60;;;12.90;99.90;12.20;101491;;;;585097;244;24057;-77
2022/08/11 01:03:04;;;;;;;9.67;6.37;;;12.90;99.90;12.20;101485;;;;576757;244;24013;-77
2022/08/11 01:06:00;;;;;;;9.23;5.70;;;12.80;99.90;12.10;101496;;;;578407;244;24072;-77
2022/08/11 01:08:39;;;;;;;11.50;6.37;;;12.80;99.90;12.10;101489;;;;580295;244;24059;-78
2022/08/11 01:11:22;;;;;;;11.17;6.53;;;12.70;99.90;12.10;101499;;;;579063;244;24111;-78
2022/08/11 01:14:37;;;;;;;8.43;6.10;;;12.70;99.90;12.10;101489;;;;579660;244;24002;-77
2022/08/11 01:17:39;;;;;;;11.23;6.13;;;12.70;99.90;12.10;101490;;;;576374;244;24009;-78
2022/08/11 01:20:12;;;;;;;9.43;6.40;;;12.70;99.90;12.10;101500;;;;587118;243;24057;-77
2022/08/11 01:22:59;;;;;;;8.87;6.33;;;12.70;99.90;12.00;101499;;;;578407;244;24044;-78
2022/08/11 01:25:41;;;;;;;6.83;5.80;;;12.70;99.90;12.10;101499;;;;578588;244;24063;-79
2022/08/11 01:28:24;;;;;;;7.97;6.37;;;12.70;99.90;12.00;101504;;;;584947;243;24040;-79
2022/08/11 01:31:10;;;;;;;8.67;6.37;;;12.70;99.90;12.00;101513;;;;582895;244;24050;-78
2022/08/11 01:34:05;;;;;;;7.50;5.70;;;12.70;99.90;12.00;101507;;;;589512;243;24050;-79
2022/08/11 01:36:44;;;;;;;8.87;5.97;;;12.60;99.90;12.00;101500;;;;579223;244;24026;-82
2022/08/11 01:39:18;;;;;;;7.73;6.17;;;12.60;99.90;12.00;101499;;;;580866;244;24032;-82
2022/08/11 01:45:12;;;;;;;7.50;5.53;;;12.60;99.90;12.00;101504;;;;579995;244;24084;-81
2022/08/11 01:48:07;;;;;;;10.37;6.63;;;12.60;99.90;12.00;101495;;;;580334;244;24027;-81
2022/08/11 01:50:56;;;;;;;11.93;6.30;;;12.60;99.90;12.00;101498;;;;579596;243;25122;-78
2022/08/11 01:53:38;;;;;;;9.90;6.10;;;12.60;99.90;12.00;101498;;;;579675;244;24021;-77
2022/08/11 01:56:40;;;;;;;7.90;5.73;;;12.60;99.90;11.90;101498;;;;578797;243;24024;-78
2022/08/11 01:59:25;;;;;;;7.63;6.00;;;12.60;99.90;11.90;101492;;;;588806;243;24033;-78
2022/08/11 02:02:11;;;;;;;11.13;6.40;;;12.60;99.90;11.90;101497;;;;588701;244;24007;-80
2022/08/11 02:05:03;;;;;;;10.77;6.23;;;12.60;99.90;11.90;101499;;;;579570;244;24124;-81
2022/08/11 02:07:52;;;;;;;14.23;6.23;;;12.50;99.90;11.90;101493;;;;588378;244;24014;-78
2022/08/11 02:13:20;;;;;;;9.87;5.50;;;12.50;99.90;11.80;101494;;;;589658;240;24029;-80
2022/08/11 02:15:51;;;;;;;7.40;5.00;;;12.40;99.90;11.80;101497;;;;578410;244;24021;-81
2022/08/11 02:23:38;;;;;;;9.60;6.77;;;12.50;99.90;11.80;101498;;;;581583;244;24049;-78
2022/08/11 02:24:03;;;;;;;9.60;5.63;;;12.50;99.90;11.90;101501;;;;579532;244;24064;-77
2022/08/11 02:26:40;;;;;;;9.73;5.57;;;12.50;99.90;11.90;101506;;;;589622;243;24012;-78
2022/08/11 02:29:32;;;;;;;12.70;6.30;;;12.60;99.90;11.90;101506;;;;589571;243;24068;-78
2022/08/11 02:35:13;;;;;;;7.20;6.50;;;12.60;99.90;11.90;101504;;;;579085;244;24021;-78
2022/08/11 02:38:05;;;;;;;11.63;6.47;;;12.60;99.90;11.90;101500;;;;579377;242;24038;-77
2022/08/11 02:40:48;;;;;;;12.50;7.13;;;12.50;99.90;11.80;101501;;;;588105;243;24017;-77
2022/08/11 02:43:40;;;;;;;10.10;6.43;;;12.40;99.90;11.80;101504;;;;589270;243;25105;-77
2022/08/11 02:46:23;;;;;;;9.23;6.57;;;12.40;99.90;11.70;101511;;;;579614;244;24061;-77
2022/08/11 02:52:01;;;;;;;8.43;5.53;;;12.40;99.90;11.70;101505;;;;589378;242;24071;-78
2022/08/11 02:54:44;;;;;;;11.57;6.73;;;12.30;99.90;11.70;101508;;;;582313;244;24060;-77
2022/08/11 02:57:27;;;;;;;8.47;6.17;;;12.30;99.90;11.70;101508;;;;588112;243;24028;-77
2022/08/11 03:00:06;;;;;;;8.83;6.30;;;12.30;99.90;11.60;101499;;;;579558;244;24096;-78
2022/08/11 03:02:50;;;;;;;7.13;6.20;;;12.30;99.90;11.60;101505;;;;589624;243;24076;-77
2022/08/11 03:05:19;;;;;;;11.10;7.23;;;12.20;99.90;11.60;101503;;;;579730;243;24042;-78
2022/08/11 03:08:13;;;;;;;11.10;6.77;;;12.20;99.90;11.60;101505;;;;576838;244;24100;-77
2022/08/11 03:17:19;;;;;;;9.63;6.60;;;12.20;99.90;11.60;101507;;;;580591;244;24074;-78
2022/08/11 03:20:11;;;;;;;8.90;6.67;;;12.20;99.90;11.60;101516;;;;571671;244;24070;-77
2022/08/11 03:22:45;;;;;;;8.37;6.23;;;12.30;99.90;11.70;101506;;;;579365;244;24060;-77
2022/08/11 03:25:34;;;;;;;9.70;7.20;;;12.30;99.90;11.70;101518;;;;578949;244;24101;-80
2022/08/11 03:28:14;;;;;;;12.67;7.60;;;12.30;99.90;11.90;101518;;;;588796;243;24008;-77
2022/08/11 03:31:24;;;;;;;13.83;7.20;;;12.50;99.90;12.00;101518;;;;579182;244;24167;-77
2022/08/11 03:34:07;;;;;;;12.30;7.03;;;12.60;99.90;12.10;101514;;;;570137;247;24079;-78
2022/08/11 03:37:05;;;;;;;12.97;8.10;;;12.70;99.90;12.20;101514;;;;578507;244;24076;-81
2022/08/11 03:39:57;;;;;;;14.27;7.43;;;12.80;99.90;12.30;101514;;;;578385;244;24030;-80
2022/08/11 03:42:42;;;;;;;11.93;7.57;;;12.90;99.90;12.30;101522;;;;579720;244;24036;-81
2022/08/11 03:45:31;;;;;;;14.13;7.50;;;13.00;99.90;12.40;101521;;;;588236;243;24057;-80
2022/08/11 03:48:30;;;;;;;10.57;7.13;;;13.00;99.90;12.50;101516;;;;589913;243;24109;-80
2022/08/11 03:51:07;;;;;;;10.53;7.30;;;13.10;99.90;12.50;101508;;;;577566;244;24042;-82
2022/08/11 03:53:44;;;;;;;10.30;7.63;;;13.10;99.90;12.50;101513;;;;582377;244;24039;-79
2022/08/11 03:56:52;;;;;;;10.67;7.27;;;13.10;99.90;12.60;101513;;;;579932;244;24068;-81
2022/08/11 03:59:50;;;;;;;11.30;6.67;;;13.20;99.90;12.70;101506;;;;583565;244;24041;-79
2022/08/11 04:02:30;;;;;;;10.10;8.03;;;13.30;99.90;12.70;101511;;;;566891;249;24138;-77
2022/08/11 04:05:28;;;;;;;19.40;8.93;;;13.30;99.90;12.80;101510;;;;575070;247;24062;-78
2022/08/11 04:08:14;;;;;;;17.10;8.70;;;13.40;99.90;12.90;101515;;;;576908;244;24014;-78
2022/08/11 04:11:27;;;;;;;23.43;8.43;;;13.50;99.90;13.00;101517;;;;579926;244;24053;-78
2022/08/11 04:17:37;;;;;;;38.03;7.23;;;13.70;99.90;13.30;101527;;;;584242;244;23980;-82
2022/08/11 04:20:44;;;;;;;20.57;8.47;;;13.80;99.90;13.60;101535;;;;578795;243;24061;-81
2022/08/11 04:23:48;;;;;;;16.57;7.87;;;14.10;99.90;15.10;101538;;;;576351;244;24051;-78
2022/08/11 04:26:40;;;;;;;23.03;9.00;;;15.50;99.90;16.80;101549;;;;575982;244;24017;-81
2022/08/11 04:29:19;;;;;;;34.23;9.43;;;18.90;99.90;18.20;101546;;;;581203;243;24018;-78
2022/08/11 04:32:29;;;;;;;30.63;8.63;;;18.90;99.90;19.70;101550;;;;575920;244;24107;-77
2022/08/11 04:35:17;;;;;;;33.90;7.90;;;20.50;99.90;21.30;101549;;;;578406;244;24006;-77
2022/08/11 04:38:14;;;;;;;17.77;6.77;;;23.70;99.90;22.70;101559;;;;582832;244;24015;-77
2022/08/11 04:41:31;;;;;;;17.33;6.67;;;23.70;99.90;24.00;101547;;;;587559;244;24083;-78
2022/08/11 04:44:17;;;;;;;19.87;5.97;;;25.10;99.90;25.20;101539;;;;578080;244;24010;-77
2022/08/11 05:03:03;;;;;;;17.17;5.20;;;31.40;92.00;30.30;101525;;;;590200;242;23030;-76
2022/08/11 05:06:05;;;;;;;16.77;6.12;;;31.40;91.90;31.20;101526;;;;589435;243;24069;-81
2022/08/11 05:08:50;;;;;;;15.88;5.95;;;32.10;89.00;31.80;101519;;;;579681;244;23015;-77
2022/08/11 05:12:07;;;;;;;29.92;6.18;;;32.80;83.50;32.60;101512;;;;579829;244;23020;-80
2022/08/11 05:37:33;;;;;;;12.13;3.47;;;39.40;55.20;39.10;101527;;;;579487;244;23080;-77
2022/08/11 05:56:54;;;;;;;8.20;2.42;;;43.00;45.30;42.10;101539;;;;580579;244;23028;-78
2022/08/11 05:59:25;;;;;;;9.13;2.85;;;43.00;44.60;42.20;101546;;;;579429;244;23100;-81
2022/08/11 06:01:53;;;;;;;10.05;2.87;;;43.10;44.60;42.80;101554;;;;581755;244;23023;-80
2022/08/11 06:04:20;;;;;;;9.30;2.85;;;43.40;44.00;42.80;101556;;;;579566;244;23017;-85
2022/08/11 06:07:01;;;;;;;5.15;2.92;;;43.90;43.00;43.30;101560;;;;579621;244;23095;-86
2022/08/11 06:12:19;;;;;;;9.00;3.17;;;44.10;43.50;43.80;101562;;;;570289;250;23144;-84
2022/08/11 06:14:48;;;;;;;8.93;3.05;;;44.50;43.40;44.20;101567;;;;555940;254;24171;-84
2022/08/11 06:17:15;;;;;;;5.65;3.05;;;44.90;41.00;44.20;101570;;;;565868;254;23120;-86
2022/08/11 06:19:43;;;;;;;7.30;3.42;;;45.00;41.10;44.50;101572;;;;565308;253;23152;-87
2022/08/11 06:22:11;;;;;;;10.02;3.60;;;45.10;41.00;45.20;101576;;;;565536;253;23115;-85
2022/08/11 06:24:44;;;;;;;10.77;3.20;;;45.50;40.60;45.20;101578;;;;555338;254;23151;-81
2022/08/11 06:27:10;;;;;;;7.93;2.80;;;45.90;39.10;45.50;101571;;;;550678;254;23141;-81
2022/08/11 06:29:40;;;;;;;6.47;2.95;;;46.10;39.30;45.60;101567;;;;547604;254;35506;-81
2022/08/11 06:32:07;;;;;;;5.97;2.70;;;46.10;39.20;45.70;101573;;;;567403;250;23120;-82
2022/08/11 06:34:59;;;;;;;5.57;2.70;;;46.30;39.50;45.90;101574;;;;568168;252;23173;-81
2022/08/11 06:37:45;;;;;;;4.57;2.45;;;46.40;39.20;46.40;101570;;;;579223;247;23073;-81
2022/08/11 06:40:26;;;;;;;2.53;2.33;;;46.80;39.50;47.10;101576;;;;562305;253;23174;-83
2022/08/11 06:43:11;;;;;;;8.65;3.22;;;47.30;38.20;47.10;101575;;;;570795;247;23039;-81
2022/08/11 06:45:51;;;;;;;3.85;2.40;;;47.60;38.30;47.60;101577;;;;570905;247;23058;-82
2022/08/11 06:48:19;;;;;;;4.78;2.37;;;48.00;37.60;47.90;101578;;;;562647;253;23113;-79
2022/08/11 06:53:44;;;;;;;2.58;2.37;;;48.10;36.70;46.80;101585;;;;569270;251;23242;-80
2022/08/11 07:01:57;;;;;;;4.10;3.60;;;47.80;37.00;47.80;101586;;;;564832;250;35324;-80
2022/08/11 07:04:42;;;;;;;4.65;2.70;;;48.10;36.00;47.80;101590;;;;563616;252;35105;-79
2022/08/11 07:15:53;;;;;;;2.62;2.42;;;49.00;35.30;48.50;101593;;;;570985;251;23117;-81
2022/08/11 07:30:00;;;;;;;5.70;2.42;;;47.80;34.90;46.90;101595;;;;571883;249;23102;-80
2022/08/11 07:32:31;;;;;;;2.40;2.20;;;47.50;35.40;47.50;101597;;;;568996;251;23141;-80
2022/08/11 07:35:02;;;;;;;6.78;2.35;;;48.40;35.30;48.30;101593;;;;568933;247;24202;-81
2022/08/11 07:37:32;;;;;;;76.68;10.88;;;48.30;35.20;49.00;101594;;;;568657;252;23169;-79
2022/08/11 07:39:58;;;;;;;24.52;4.72;;;49.00;34.60;49.70;101600;;;;565755;247;35111;-79
2022/08/11 07:42:34;;;;;;;5.87;2.30;;;49.90;34.00;49.50;101597;;;;562540;253;23093;-80
2022/08/11 07:53:18;;;;;;;11.52;3.10;;;50.10;34.40;50.30;101597;;;;569507;250;23173;-83
2022/08/11 07:55:46;;;;;;;4.28;2.53;;;50.50;33.60;51.00;101599;;;;563208;252;23118;-85
2022/08/11 08:17:52;;;;;;;4.62;3.78;;;47.60;36.80;48.90;101605;;;;569936;252;23078;-81
2022/08/11 08:20:23;;;;;;;8.00;3.97;;;48.80;35.50;49.70;101597;;;;570939;247;23042;-81
2022/08/11 08:22:55;;;;;;;7.43;4.07;;;50.60;34.40;50.40;101598;;;;568522;248;23057;-79
2022/08/11 08:25:19;;;;;;;8.23;4.28;;;50.60;34.40;50.80;101595;;;;570074;247;23065;-84
2022/08/11 08:27:47;;;;;;;6.03;3.78;;;51.10;33.70;50.50;101602;;;;570604;247;23103;-80
2022/08/11 08:33:00;;;;;;;14.63;4.43;;;50.90;33.90;49.70;101607;;;;578941;243;23082;-78
2022/08/11 08:35:32;;;;;;;6.30;4.00;;;50.60;33.70;49.20;101596;;;;562615;251;23087;-80
2022/08/11 08:37:59;;;;;;;6.93;3.92;;;50.10;34.10;49.50;101590;;;;559238;252;23078;-79
2022/08/11 08:40:25;;;;;;;23.33;5.87;;;50.40;34.50;49.80;101595;;;;559194;252;23147;-79
2022/08/11 08:42:54;;;;;;;8.10;4.00;;;50.50;34.10;49.50;101589;;;;571458;247;23086;-80
2022/08/11 08:45:25;;;;;;;8.32;3.70;;;50.30;34.20;49.20;101596;;;;568828;250;23124;-78
2022/08/11 08:48:05;;;;;;;14.23;3.90;;;50.30;34.20;48.90;101591;;;;570556;247;23078;-79
2022/08/11 08:53:28;;;;;;;10.02;4.65;;;50.10;34.00;50.00;101588;;;;568596;251;23105;-80
2022/08/11 08:55:55;;;;;;;4.35;3.12;;;50.60;33.60;50.60;101591;;;;570490;247;23058;-80
2022/08/11 08:58:21;;;;;;;6.28;3.55;;;51.40;33.10;50.80;101592;;;;568181;247;23111;-81
2022/08/11 09:00:49;;;;;;;3.95;3.65;;;51.40;33.10;51.30;101587;;;;570808;250;23120;-82
2022/08/11 09:03:21;;;;;;;4.47;3.08;;;51.90;32.10;50.80;101588;;;;568353;251;23090;-80
2022/08/11 09:05:45;;;;;;;7.57;3.53;;;51.70;32.10;50.30;101580;;;;573162;247;24127;-81
2022/08/11 09:08:13;;;;;;;7.45;3.45;;;51.70;32.20;50.00;101588;;;;569524;250;23146;-80
2022/08/11 09:10:41;;;;;;;8.35;2.97;;;51.30;32.90;49.80;101583;;;;568299;252;24157;-80
2022/08/11 09:13:09;;;;;;;5.53;3.12;;;51.10;32.20;49.10;101577;;;;570518;248;23059;-79
2022/08/11 09:15:40;;;;;;;3.08;2.72;;;50.70;32.30;48.80;101581;;;;562017;253;23099;-80
2022/08/11 09:18:09;;;;;;;5.15;2.80;;;50.10;32.90;49.20;101583;;;;579015;247;23084;-81
2022/08/11 09:20:37;;;;;;;19.60;5.70;;;50.90;32.10;50.20;101585;;;;562090;253;23119;-81
2022/08/11 09:28:36;;;;;;;5.43;2.70;;;51.80;30.90;50.50;101580;;;;563224;247;35066;-81
2022/08/11 09:31:04;;;;;;;5.65;2.80;;;52.00;30.30;50.20;101576;;;;570260;248;24146;-80
2022/08/11 09:33:35;;;;;;;3.22;2.15;;;51.70;31.00;50.90;101566;;;;579586;246;23086;-83
2022/08/11 09:40:27;;;;;;;2.62;2.40;;;52.10;30.60;51.50;101577;;;;570570;247;23057;-81
2022/08/11 09:41:14;;;;;;;12.02;2.90;;;52.80;29.10;50.90;101577;;;;579577;245;23050;-81
2022/08/11 09:46:31;;;;;;;2.20;1.87;;;52.50;29.00;51.00;101565;;;;579862;245;24150;-81
2022/08/11 09:49:02;;;;;;;5.60;2.53;;;53.00;28.60;51.30;101571;;;;566983;247;34917;-81
2022/08/11 09:51:31;;;;;;;2.30;2.08;;;52.80;28.50;51.10;101565;;;;569269;247;23075;-80
2022/08/11 09:54:05;;;;;;;14.57;3.15;;;52.80;28.50;50.60;101564;;;;562877;253;24139;-81
2022/08/11 09:59:15;;;;;;;2.95;2.00;;;52.40;27.20;50.00;101561;;;;579993;247;23074;-79
2022/08/11 10:01:48;;;;;;;2.65;1.73;;;52.20;27.80;48.90;101565;;;;569081;252;24199;-84
2022/08/11 10:04:14;;;;;;;5.50;1.85;;;51.40;27.10;47.20;101568;;;;573582;247;23092;-84
2022/08/11 10:09:36;;;;;;;3.72;2.05;;;47.90;28.50;45.50;101563;;;;571280;251;23103;-80
2022/08/11 10:12:04;;;;;;;2.42;2.22;;;47.80;28.40;46.50;101556;;;;570762;247;23075;-79
2022/08/11 10:17:18;;;;;;;1.73;1.60;;;48.50;28.20;46.20;101546;;;;579948;246;23030;-80
2022/08/11 10:19:46;;;;;;;3.37;1.70;;;48.30;28.10;46.10;101543;;;;560248;252;24121;-81
2022/08/11 10:27:55;;;;;;;3.00;1.30;;;47.20;26.40;44.80;101543;;;;579339;247;23053;-81
2022/08/11 10:35:47;;;;;;;1.35;1.20;;;44.90;27.40;41.80;101540;;;;569575;251;24197;-86
2022/08/11 10:38:18;;;;;;;5.03;1.50;;;43.90;28.60;41.40;101538;;;;579622;247;23041;-80
2022/08/11 10:40:43;;;;;;;8.90;1.75;;;43.40;28.30;40.50;101538;;;;558168;252;23147;-87
2022/08/11 10:43:12;;;;;;;2.75;1.35;;;42.60;29.20;39.20;101531;;;;569359;247;23051;-82
2022/08/11 10:48:26;;;;;;;5.93;2.00;;;40.30;30.40;36.70;101526;;;;569738;250;23102;-79
2022/08/11 10:51:12;;;;;;;6.12;1.90;;;38.50;32.80;35.30;101526;;;;568538;252;23080;-78
2022/08/11 10:59:22;;;;;;;3.75;1.70;;;32.10;39.80;31.40;101525;;;;571831;249;23082;-83
2022/08/11 11:01:50;;;;;;;6.10;1.62;;;32.00;39.70;30.40;101520;;;;570245;249;23096;-79
2022/08/11 11:04:18;;;;;;;1.67;1.45;;;31.00;39.80;29.60;101516;;;;569432;251;23109;-79
2022/08/11 11:07:04;;;;;;;4.37;1.77;;;30.00;41.90;28.80;101513;;;;569273;247;24043;-79
2022/08/11 11:09:34;;;;;;;1.30;1.20;;;29.20;44.00;28.00;101508;;;;563242;253;23092;-79
2022/08/11 11:17:55;;;;;;;1.63;1.30;;;27.00;45.30;25.90;101499;;;;569200;251;23074;-84
2022/08/11 11:20:24;;;;;;;1.77;0.83;;;25.90;45.60;25.50;101507;;;;571042;247;23092;-81
2022/08/11 11:22:52;;;;;;;9.07;2.07;;;25.60;47.00;25.10;101502;;;;568786;244;24078;-81
2022/08/11 11:25:36;;;;;;;6.17;1.73;;;25.20;49.00;24.70;101517;;;;568626;247;24071;-80
2022/08/11 11:28:28;;;;;;;4.25;1.62;;;25.10;49.00;24.30;101501;;;;557727;253;35255;-81
2022/08/11 11:31:11;;;;;;;14.00;2.33;;;24.80;51.00;23.90;101510;;;;560468;252;24051;-77
2022/08/11 11:34:00;;;;;;;3.10;1.13;;;24.50;52.90;23.70;101497;;;;568754;247;24021;-77
2022/08/11 11:36:52;;;;;;;3.73;1.50;;;24.20;53.00;23.60;101493;;;;579424;243;24043;-79
2022/08/11 11:39:23;;;;;;;2.30;1.07;;;24.00;53.80;23.50;101493;;;;579509;246;24064;-78
2022/08/11 11:41:51;;;;;;;3.70;1.40;;;23.90;55.00;23.40;101497;;;;568705;252;24059;-78
2022/08/11 11:44:19;;;;;;;4.60;1.20;;;23.80;55.20;23.30;101492;;;;568738;247;24039;-78
2022/08/11 11:46:50;;;;;;;1.50;1.33;;;23.70;55.90;23.20;101496;;;;568707;252;24121;-79
2022/08/11 11:49:18;;;;;;;3.00;1.30;;;23.50;53.80;23.10;101486;;;;570343;248;24045;-80
2022/08/11 11:51:49;;;;;;;3.33;1.43;;;23.50;53.80;23.00;101489;;;;562209;253;24118;-78
2022/08/11 11:54:18;;;;;;;4.93;1.53;;;23.40;55.10;22.90;101488;;;;556061;253;24161;-78
2022/08/11 11:56:45;;;;;;;4.33;1.00;;;23.30;55.10;22.90;101482;;;;559743;252;24101;-78
2022/08/11 12:02:02;;;;;;;1.10;1.10;;;23.20;54.50;22.80;101477;;;;570788;249;24098;-79
2022/08/11 12:04:27;;;;;;;5.50;1.30;;;23.20;54.50;22.70;101478;;;;558310;253;23137;-77
2022/08/11 12:08:08;;;;;;;4.40;1.97;;;23.10;54.50;22.60;101479;;;;568558;252;24118;-79
2022/08/11 12:09:27;;;;;;;24.93;3.33;;;23.10;55.40;22.60;101479;;;;570744;248;23063;-77
2022/08/11 12:14:41;;;;;;;9.83;2.07;;;23.00;56.60;22.50;101484;;;;581192;246;24038;-79
2022/08/11 12:17:05;;;;;;;2.23;0.93;;;22.90;56.50;22.40;101475;;;;558766;253;24107;-78
2022/08/11 12:19:34;;;;;;;5.50;1.00;;;22.90;56.40;22.40;101472;;;;579135;247;24051;-76
2022/08/11 12:27:34;;;;;;;2.30;1.13;;;22.80;57.30;22.40;101470;;;;579903;245;24075;-77
2022/08/11 12:30:07;;;;;;;4.13;0.87;;;22.80;57.90;22.30;101474;;;;579797;247;24064;-78
2022/08/11 12:32:30;;;;;;;6.47;1.13;;;22.80;57.80;22.30;101468;;;;570846;247;24036;-77
2022/08/11 12:35:02;;;;;;;1.00;1.00;;;22.80;58.90;22.30;101461;;;;570812;247;24123;-77
2022/08/11 12:37:45;;;;;;;12.97;3.03;;;22.80;58.60;22.40;101462;;;;570762;247;24051;-79
2022/08/11 12:45:45;;;;;;;8.47;1.43;;;22.80;59.80;22.30;101457;;;;579829;245;24052;-81
2022/08/11 12:54:08;;;;;;;1.70;1.37;;;22.70;62.40;22.20;101443;;;;579824;245;23045;-79
2022/08/11 13:04:59;;;;;;;2.10;1.37;;;22.70;60.00;22.20;101437;;;;579852;247;24063;-80
2022/08/11 13:07:31;;;;;;;6.83;1.73;;;22.70;59.30;22.20;101432;;;;579415;247;24033;-81
2022/08/11 13:09:58;;;;;;;1.70;1.40;;;22.70;60.00;22.20;101431;;;;571059;248;23087;-78
2022/08/11 13:15:12;;;;;;;4.90;1.53;;;22.60;60.00;22.10;101431;;;;580865;245;24012;-77
2022/08/11 13:17:43;;;;;;;6.40;1.50;;;22.60;59.30;22.10;101417;;;;580228;247;24098;-78
2022/08/11 13:20:11;;;;;;;4.67;1.50;;;22.60;60.70;22.10;101418;;;;571301;248;24028;-83
2022/08/11 13:22:38;;;;;;;4.40;1.53;;;22.60;60.70;22.20;101419;;;;580394;246;24089;-81
2022/08/11 13:25:06;;;;;;;8.67;2.00;;;22.60;60.70;22.20;101421;;;;572607;247;24086;-84
2022/08/11 13:27:36;;;;;;;1.03;1.03;;;22.60;60.80;22.20;101402;;;;571965;247;24078;-82
2022/08/11 13:32:47;;;;;;;2.17;1.30;;;22.70;60.60;22.20;101402;;;;580411;244;23070;-84
2022/08/11 13:35:22;;;;;;;1.10;1.00;;;22.70;61.20;22.30;101402;;;;580050;247;24082;-85
2022/08/11 13:37:50;;;;;;;1.87;1.27;;;22.70;61.20;22.30;101406;;;;580191;247;24087;-81
2022/08/11 13:40:14;;;;;;;4.67;1.60;;;22.70;61.40;22.30;101402;;;;571265;245;24147;-84
2022/08/11 13:42:47;;;;;;;2.13;1.50;;;22.70;60.80;22.30;101389;;;;579618;247;24041;-79
2022/08/11 13:45:14;;;;;;;1.20;1.20;;;22.70;60.70;22.20;101394;;;;570784;247;24129;-79
2022/08/11 13:47:39;;;;;;;2.93;1.37;;;22.70;61.20;22.20;101403;;;;570890;247;24036;-79
2022/08/11 13:50:12;;;;;;;1.30;1.20;;;22.60;61.80;22.10;101399;;;;579839;247;24045;-84
2022/08/11 13:52:40;;;;;;;0.87;0.80;;;22.60;61.80;22.20;101389;;;;571491;247;24073;-81
2022/08/11 13:55:08;;;;;;;1.00;1.00;;;22.60;61.70;22.10;101384;;;;571583;247;23066;-83
2022/08/11 13:57:37;;;;;;;1.00;1.00;;;22.60;62.20;22.10;101382;;;;571524;247;24033;-80
2022/08/11 14:00:10;;;;;;;2.17;1.37;;;22.50;63.50;22.10;101380;;;;579823;247;24071;-81
2022/08/11 14:02:38;;;;;;;1.40;1.33;;;22.50;63.80;22.00;101374;;;;571567;247;24038;-81
2022/08/11 14:05:15;;;;;;;2.63;1.30;;;22.50;64.70;22.00;101374;;;;568844;247;24075;-82
2022/08/11 14:07:40;;;;;;;3.07;1.10;;;22.40;64.80;22.00;101366;;;;579376;247;24051;-81
2022/08/11 14:10:12;;;;;;;1.23;1.23;;;22.40;65.20;22.00;101362;;;;568782;247;24025;-82
2022/08/11 14:15:33;;;;;;;1.77;1.20;;;22.50;66.00;22.00;101364;;;;580744;247;23136;-80
2022/08/11 14:18:04;;;;;;;1.60;1.43;;;22.40;65.80;22.00;101357;;;;563122;253;24092;-78
2022/08/11 14:23:17;;;;;;;2.00;1.10;;;22.50;65.90;22.00;101346;;;;580074;246;24058;-80
2022/08/11 14:28:32;;;;;;;2.87;1.53;;;22.40;66.30;22.00;101339;;;;580213;246;24047;-80
2022/08/11 14:31:02;;;;;;;1.50;1.40;;;22.50;67.40;22.00;101340;;;;568530;252;24057;-79
2022/08/11 14:33:27;;;;;;;2.03;1.23;;;22.50;67.20;22.00;101338;;;;568921;245;23098;-79
2022/08/11 14:35:58;;;;;;;4.13;1.70;;;22.40;67.40;22.00;101339;;;;573091;247;24110;-79
2022/08/11 14:38:23;;;;;;;5.97;2.57;;;22.40;67.80;22.10;101345;;;;571771;247;23069;-77
2022/08/11 14:49:13;;;;;;;2.90;1.20;;;22.40;69.30;22.00;101350;;;;580267;247;24091;-78
2022/08/11 14:51:41;;;;;;;2.55;1.40;;;22.40;70.00;22.00;101346;;;;574959;247;45694;-79
2022/08/11 14:56:52;;;;;;;2.97;1.70;;;22.50;69.70;22.00;101343;;;;579682;245;23068;-78
2022/08/11 14:59:19;;;;;;;4.10;1.33;;;22.50;70.00;22.00;101344;;;;570892;247;24033;-78
2022/08/11 15:04:36;;;;;;;1.87;1.70;;;22.50;70.50;22.10;101341;;;;579532;245;24028;-78
2022/08/11 15:07:01;;;;;;;5.53;1.60;;;22.50;70.30;22.00;101344;;;;570350;247;24073;-78
2022/08/11 15:09:29;;;;;;;1.23;1.17;;;22.50;69.80;22.00;101351;;;;579397;247;23054;-78
2022/08/11 15:12:15;;;;;;;4.23;1.80;;;22.40;69.70;21.90;101366;;;;570439;248;24152;-79
2022/08/11 15:17:24;;;;;;;2.93;2.57;;;22.20;72.70;21.80;101367;;;;579703;247;23113;-77
2022/08/11 15:25:25;;;;;;;4.13;1.53;;;22.20;73.90;21.80;101371;;;;579149;247;24050;-77
2022/08/11 15:39:02;;;;;;;1.93;1.60;;;22.20;75.30;21.70;101362;;;;579838;245;23061;-80
2022/08/11 15:47:13;;;;;;;3.13;1.90;;;22.10;78.70;21.60;101360;;;;581594;245;24030;-78
2022/08/11 15:49:39;;;;;;;3.10;1.60;;;22.00;78.80;21.60;101362;;;;580909;247;24029;-79
2022/08/11 15:52:07;;;;;;;2.07;1.50;;;22.00;76.30;21.50;101357;;;;580709;247;24024;-78
2022/08/11 15:54:35;;;;;;;3.23;1.53;;;21.90;79.20;21.50;101346;;;;571404;247;24047;-80
2022/08/11 15:57:04;;;;;;;3.47;1.60;;;21.90;79.10;21.50;101355;;;;579636;247;24040;-82
2022/08/11 16:05:04;;;;;;;2.13;1.40;;;21.90;78.70;21.40;101355;;;;579813;247;23072;-79
2022/08/11 16:07:34;;;;;;;6.30;1.70;;;21.80;78.90;21.40;101348;;;;573598;247;24063;-84
2022/08/11 16:10:07;;;;;;;1.70;1.30;;;21.80;80.30;21.40;101350;;;;579804;247;24055;-85
2022/08/11 16:12:37;;;;;;;2.40;0.97;;;21.80;80.00;21.30;101352;;;;571267;247;24036;-85
2022/08/11 16:17:52;;;;;;;5.77;1.00;;;21.70;76.80;21.20;101346;;;;580256;245;23076;-81
2022/08/11 16:20:20;;;;;;;2.37;1.20;;;21.70;75.60;21.20;101347;;;;579601;247;23058;-76
2022/08/11 16:22:49;;;;;;;5.37;1.20;;;21.60;77.20;21.10;101351;;;;579326;247;24037;-78
2022/08/11 16:25:22;;;;;;;2.73;0.93;;;21.60;77.10;21.10;101348;;;;579141;248;23097;-78
2022/08/11 16:27:59;;;;;;;1.87;0.87;;;21.50;76.20;21.10;101342;;;;570898;247;24053;-78